Bath, Illinois
Current Conditions -  °F | °C
As of 6:55 AM on Tuesday 21 Oct 2014 (Local Time) from KIJX Reporting Station
Clear Clear  
Wind Chill:   Ceiling: Unl
Heat Index:   Visibility: 10mi
Dew Point:   Wind: 5mph
Humidity: 89%   Direction: 20°NNE
Pressure: 30.1"   Gusts: NA
Location:  40.19°N, 90.14°W
Report Text: KIJX 211155Z AUTO 02004KT 10SM CLR 07/05 A3010 RMK AO2 T00650048 10100 20062
Loading
Personal Weather Stations






























Interactive Weather Map
Tropical Storm Tracking
New forecast layout! Learn more

10-Day Weather Forecast

Advertisements
Track Severe Weather on mobile